Alliance, OH (44601)

10:56 PM EST on February 22, 2017 (GMT -0500)
MD8155 | | Change Station

Elev 1164 ft 40.92 °N, 81.13 °W | Updated 18 minutes ago

Overcast
Overcast
56.0 °F
Feels Like 56.0 °F
N
0.0
Wind Variable Wind from South
Gusts 4.0 mph

Today
High -- | Low -- °F
--% Chance of Precip.
Yesterday
High -- | Low -- °F
Precip. -- in
Pressure 29.83 in
Visibility 7.0 miles
Clouds Overcast 1000 ft
Dew Point 52 °F
Humidity 88%
Rainfall 0.13 in
Snow Depth Not available.
7:08 AM 6:07 PM
Waning Crescent, 13% visible
METAR KCAK 230351Z 20010KT 7SM OVC010 13/11 A2983 RMK AO2 SLP101 T01330106
Pressure 29.83 in
Visibility 7.0 miles
Clouds Overcast 1000 ft
Dew Point 52 °F
Humidity 88%
Rainfall 0.13 in
Snow Depth Not available.
7:08 AM 6:07 PM
Waning Crescent, 13% visible
METAR KCAK 230351Z 20010KT 7SM OVC010 13/11 A2983 RMK AO2 SLP101 T01330106

Get Your Daily Forecast Email!

Thanks for signing up!

Be on the lookout for a verification email in your inbox.

You'll start receiving the daily forecast at 8 AM.

×

10-Day Weather Forecast

Almanac

Astronomy

Feb. 22, 2017 Rise Set
Actual Time
Civil Twilight
Nautical Twilight
Astronomical Twilight
Moon
Length of Visible Light
Length of Day
Tomorrow will be .
, % of the Moon is Illuminated

Today's Extremes

State Highs State Lows

Community

WunderPhotos

Upload Photos

1,962,540 photos uploaded!

WunderBlog® & News

Nearby

Air Quality

  Air Quality AQ Index Pollutant
Not available.

Snow Depth

Station Depth Elevation

Earthquake Activity

City Distance Mag. Time & Date
Minimum magnitude displayed is 2.5.

Coastal Water Temperatures

Place Temperature

Stations

Nearby Weather Stations

Station Location Temp. Windchill Dew Point Humidity Wind Precip. Elev Updated Type
                   

Watches & Warnings

There are currently no watches in effect.